sensor_id;sensor_type;location;lat;lon;timestamp;pressure;altitude;pressure_sealevel;temperature;humidity
4767;BME280;2397;53.576;9.746;2023-02-10T00:02:00;103131.81;;;2.17;100.00
4767;BME280;2397;53.576;9.746;2023-02-10T00:04:27;103135.00;;;2.14;100.00
4767;BME280;2397;53.576;9.746;2023-02-10T00:06:53;103141.78;;;2.14;100.00
4767;BME280;2397;53.576;9.746;2023-02-10T00:09:19;103143.16;;;2.10;100.00
4767;BME280;2397;53.576;9.746;2023-02-10T00:11:46;103141.25;;;2.07;100.00
4767;BME280;2397;53.576;9.746;2023-02-10T00:14:28;103143.94;;;2.09;100.00
4767;BME280;2397;53.576;9.746;2023-02-10T00:16:56;103150.06;;;2.11;100.00
4767;BME280;2397;53.576;9.746;2023-02-10T00:19:24;103155.03;;;2.09;100.00
4767;BME280;2397;53.576;9.746;2023-02-10T00:21:51;103156.72;;;2.09;100.00
4767;BME280;2397;53.576;9.746;2023-02-10T00:24:19;103153.22;;;2.08;100.00
4767;BME280;2397;53.576;9.746;2023-02-10T00:26:46;103142.88;;;2.07;100.00
4767;BME280;2397;53.576;9.746;2023-02-10T00:29:13;103145.84;;;2.11;100.00
4767;BME280;2397;53.576;9.746;2023-02-10T00:31:39;103142.53;;;2.13;100.00
4767;BME280;2397;53.576;9.746;2023-02-10T00:34:08;103136.13;;;2.07;100.00
4767;BME280;2397;53.576;9.746;2023-02-10T00:36:34;103139.22;;;2.14;100.00
4767;BME280;2397;53.576;9.746;2023-02-10T00:39:01;103136.66;;;2.14;100.00
4767;BME280;2397;53.576;9.746;2023-02-10T00:41:27;103139.22;;;2.14;100.00
4767;BME280;2397;53.576;9.746;2023-02-10T00:43:54;103143.19;;;2.20;100.00
4767;BME280;2397;53.576;9.746;2023-02-10T00:46:21;103142.16;;;2.18;100.00
4767;BME280;2397;53.576;9.746;2023-02-10T00:48:49;103146.09;;;2.15;100.00
4767;BME280;2397;53.576;9.746;2023-02-10T00:51:16;103147.38;;;2.09;100.00
4767;BME280;2397;53.576;9.746;2023-02-10T00:53:43;103142.75;;;2.05;100.00
4767;BME280;2397;53.576;9.746;2023-02-10T00:56:10;103147.09;;;2.06;100.00
4767;BME280;2397;53.576;9.746;2023-02-10T00:58:37;103144.81;;;2.09;100.00
4767;BME280;2397;53.576;9.746;2023-02-10T01:01:04;103152.63;;;2.11;100.00
4767;BME280;2397;53.576;9.746;2023-02-10T01:03:31;103157.72;;;2.11;100.00
4767;BME280;2397;53.576;9.746;2023-02-10T01:05:58;103155.78;;;2.08;100.00
4767;BME280;2397;53.576;9.746;2023-02-10T01:08:24;103147.38;;;2.09;100.00
4767;BME280;2397;53.576;9.746;2023-02-10T01:11:02;103157.59;;;2.09;100.00
4767;BME280;2397;53.576;9.746;2023-02-10T01:13:30;103152.34;;;2.08;100.00
4767;BME280;2397;53.576;9.746;2023-02-10T01:15:56;103154.03;;;2.07;100.00
4767;BME280;2397;53.576;9.746;2023-02-10T01:18:22;103154.69;;;2.15;100.00
4767;BME280;2397;53.576;9.746;2023-02-10T01:20:49;103160.94;;;2.19;100.00
4767;BME280;2397;53.576;9.746;2023-02-10T01:23:15;103159.44;;;2.21;100.00
4767;BME280;2397;53.576;9.746;2023-02-10T01:25:42;103164.81;;;2.24;100.00
4767;BME280;2397;53.576;9.746;2023-02-10T01:28:09;103155.59;;;2.26;100.00
4767;BME280;2397;53.576;9.746;2023-02-10T01:30:36;103159.03;;;2.26;100.00
4767;BME280;2397;53.576;9.746;2023-02-10T01:33:02;103152.78;;;2.23;100.00
4767;BME280;2397;53.576;9.746;2023-02-10T01:35:30;103156.34;;;2.25;100.00
4767;BME280;2397;53.576;9.746;2023-02-10T01:37:56;103158.16;;;2.26;100.00
4767;BME280;2397;53.576;9.746;2023-02-10T01:40:26;103161.19;;;2.22;100.00
4767;BME280;2397;53.576;9.746;2023-02-10T01:42:53;103162.63;;;2.28;100.00
4767;BME280;2397;53.576;9.746;2023-02-10T01:45:33;103173.75;;;2.29;100.00
4767;BME280;2397;53.576;9.746;2023-02-10T01:48:00;103170.56;;;2.32;100.00
4767;BME280;2397;53.576;9.746;2023-02-10T01:50:30;103166.06;;;2.29;100.00
4767;BME280;2397;53.576;9.746;2023-02-10T01:52:59;103165.94;;;2.27;100.00
4767;BME280;2397;53.576;9.746;2023-02-10T01:55:29;103151.38;;;2.26;100.00
4767;BME280;2397;53.576;9.746;2023-02-10T01:58:01;103152.91;;;2.24;100.00
4767;BME280;2397;53.576;9.746;2023-02-10T02:00:28;103158.03;;;2.24;100.00
4767;BME280;2397;53.576;9.746;2023-02-10T02:02:55;103151.91;;;2.22;100.00
4767;BME280;2397;53.576;9.746;2023-02-10T02:05:29;103156.09;;;2.22;100.00
4767;BME280;2397;53.576;9.746;2023-02-10T02:08:17;103151.38;;;2.26;100.00
4767;BME280;2397;53.576;9.746;2023-02-10T02:27:33;103145.91;;;2.32;100.00
4767;BME280;2397;53.576;9.746;2023-02-10T02:33:01;103153.72;;;2.44;100.00
4767;BME280;2397;53.576;9.746;2023-02-10T02:35:38;103153.84;;;2.45;100.00
4767;BME280;2397;53.576;9.746;2023-02-10T02:38:07;103155.25;;;2.42;100.00
4767;BME280;2397;53.576;9.746;2023-02-10T02:40:33;103146.84;;;2.43;100.00
4767;BME280;2397;53.576;9.746;2023-02-10T02:43:00;103154.50;;;2.43;100.00
4767;BME280;2397;53.576;9.746;2023-02-10T02:58:30;103148.97;;;2.38;100.00
4767;BME280;2397;53.576;9.746;2023-02-10T03:01:02;103149.63;;;2.36;100.00
4767;BME280;2397;53.576;9.746;2023-02-10T03:03:32;103161.13;;;2.41;100.00
4767;BME280;2397;53.576;9.746;2023-02-10T03:06:00;103152.56;;;2.40;100.00
4767;BME280;2397;53.576;9.746;2023-02-10T03:08:33;103149.75;;;2.37;100.00
4767;BME280;2397;53.576;9.746;2023-02-10T03:11:00;103149.63;;;2.36;100.00
4767;BME280;2397;53.576;9.746;2023-02-10T03:13:26;103153.56;;;2.32;100.00
4767;BME280;2397;53.576;9.746;2023-02-10T03:15:53;103153.19;;;2.38;100.00
4767;BME280;2397;53.576;9.746;2023-02-10T03:18:19;103146.69;;;2.31;100.00
4767;BME280;2397;53.576;9.746;2023-02-10T03:20:46;103145.63;;;2.29;100.00
4767;BME280;2397;53.576;9.746;2023-02-10T03:23:12;103144.34;;;2.24;100.00
4767;BME280;2397;53.576;9.746;2023-02-10T03:25:39;103139.75;;;2.20;100.00
4767;BME280;2397;53.576;9.746;2023-02-10T03:28:05;103147.16;;;2.17;100.00
4767;BME280;2397;53.576;9.746;2023-02-10T03:30:33;103137.28;;;2.11;100.00
4767;BME280;2397;53.576;9.746;2023-02-10T03:32:59;103138.44;;;2.15;100.00
4767;BME280;2397;53.576;9.746;2023-02-10T03:35:26;103146.63;;;2.10;100.00
4767;BME280;2397;53.576;9.746;2023-02-10T03:37:52;103150.69;;;2.08;100.00
4767;BME280;2397;53.576;9.746;2023-02-10T03:40:19;103148.13;;;2.08;100.00
4767;BME280;2397;53.576;9.746;2023-02-10T03:42:45;103142.88;;;2.07;100.00
4767;BME280;2397;53.576;9.746;2023-02-10T03:45:12;103149.94;;;2.09;100.00
4767;BME280;2397;53.576;9.746;2023-02-10T03:47:38;103150.28;;;2.04;100.00
4767;BME280;2397;53.576;9.746;2023-02-10T03:50:04;103143.25;;;2.01;100.00
4767;BME280;2397;53.576;9.746;2023-02-10T03:52:31;103144.91;;;2.01;100.00
4767;BME280;2397;53.576;9.746;2023-02-10T03:54:57;103139.53;;;1.98;100.00
4767;BME280;2397;53.576;9.746;2023-02-10T03:57:24;103143.50;;;1.94;100.00
4767;BME280;2397;53.576;9.746;2023-02-10T03:59:50;103142.81;;;1.86;100.00
4767;BME280;2397;53.576;9.746;2023-02-10T04:02:16;103156.34;;;1.85;100.00
4767;BME280;2397;53.576;9.746;2023-02-10T04:04:43;103157.25;;;1.86;100.00
4767;BME280;2397;53.576;9.746;2023-02-10T04:07:09;103153.94;;;1.87;100.00
4767;BME280;2397;53.576;9.746;2023-02-10T04:09:36;103158.00;;;1.85;100.00
4767;BME280;2397;53.576;9.746;2023-02-10T04:12:02;103175.13;;;1.86;100.00
4767;BME280;2397;53.576;9.746;2023-02-10T04:14:29;103179.06;;;1.82;100.00
4767;BME280;2397;53.576;9.746;2023-02-10T04:16:55;103170.50;;;1.82;100.00
4767;BME280;2397;53.576;9.746;2023-02-10T04:19:21;103167.94;;;1.82;100.00
4767;BME280;2397;53.576;9.746;2023-02-10T04:21:48;103169.00;;;1.84;100.00
4767;BME280;2397;53.576;9.746;2023-02-10T04:24:14;103178.94;;;1.81;100.00
4767;BME280;2397;53.576;9.746;2023-02-10T04:26:41;103182.72;;;1.75;100.00
4767;BME280;2397;53.576;9.746;2023-02-10T04:29:07;103174.31;;;1.77;100.00
4767;BME280;2397;53.576;9.746;2023-02-10T04:31:34;103179.16;;;1.73;100.00
4767;BME280;2397;53.576;9.746;2023-02-10T04:34:00;103179.28;;;1.75;100.00
4767;BME280;2397;53.576;9.746;2023-02-10T04:36:27;103185.63;;;1.70;100.00
4767;BME280;2397;53.576;9.746;2023-02-10T04:38:53;103184.59;;;1.68;100.00
4767;BME280;2397;53.576;9.746;2023-02-10T04:41:19;103183.69;;;1.67;100.00
4767;BME280;2397;53.576;9.746;2023-02-10T04:43:46;103184.59;;;1.68;100.00
4767;BME280;2397;53.576;9.746;2023-02-10T04:46:12;103181.91;;;1.66;100.00
4767;BME280;2397;53.576;9.746;2023-02-10T04:48:39;103182.41;;;1.62;100.00
4767;BME280;2397;53.576;9.746;2023-02-10T04:51:08;103181.38;;;1.60;100.00
4767;BME280;2397;53.576;9.746;2023-02-10T04:53:35;103187.25;;;1.59;100.00
4767;BME280;2397;53.576;9.746;2023-02-10T04:56:02;103184.41;;;1.56;100.00
4767;BME280;2397;53.576;9.746;2023-02-10T04:58:31;103181.09;;;1.57;100.00
4767;BME280;2397;53.576;9.746;2023-02-10T05:00:57;103188.78;;;1.57;100.00
4767;BME280;2397;53.576;9.746;2023-02-10T05:03:24;103192.81;;;1.55;100.00
4767;BME280;2397;53.576;9.746;2023-02-10T05:05:51;103202.56;;;1.59;100.00
4767;BME280;2397;53.576;9.746;2023-02-10T05:08:19;103198.19;;;1.58;100.00
4767;BME280;2397;53.576;9.746;2023-02-10T05:10:47;103208.69;;;1.61;100.00
4767;BME280;2397;53.576;9.746;2023-02-10T05:13:13;103205.09;;;1.59;100.00
4767;BME280;2397;53.576;9.746;2023-02-10T05:15:40;103206.63;;;1.57;100.00
4767;BME280;2397;53.576;9.746;2023-02-10T05:18:06;103210.69;;;1.55;100.00
4767;BME280;2397;53.576;9.746;2023-02-10T05:20:33;103210.56;;;1.53;100.00
4767;BME280;2397;53.576;9.746;2023-02-10T05:22:59;103220.91;;;1.55;100.00
4767;BME280;2397;53.576;9.746;2023-02-10T05:25:25;103218.97;;;1.52;100.00
4767;BME280;2397;53.576;9.746;2023-02-10T05:27:52;103228.28;;;1.52;100.00
4767;BME280;2397;53.576;9.746;2023-02-10T05:30:18;103226.47;;;1.51;100.00
4767;BME280;2397;53.576;9.746;2023-02-10T05:32:45;103229.03;;;1.51;100.00
4767;BME280;2397;53.576;9.746;2023-02-10T05:35:11;103231.59;;;1.51;100.00
4767;BME280;2397;53.576;9.746;2023-02-10T05:37:38;103236.09;;;1.53;100.00
4767;BME280;2397;53.576;9.746;2023-02-10T05:40:05;103235.75;;;1.59;100.00
4767;BME280;2397;53.576;9.746;2023-02-10T05:42:31;103237.41;;;1.58;100.00
4767;BME280;2397;53.576;9.746;2023-02-10T05:44:58;103233.94;;;1.58;100.00
4767;BME280;2397;53.576;9.746;2023-02-10T05:47:24;103240.56;;;1.56;100.00
4767;BME280;2397;53.576;9.746;2023-02-10T05:49:50;103239.03;;;1.58;100.00
4767;BME280;2397;53.576;9.746;2023-02-10T05:52:17;103241.13;;;1.62;100.00
4767;BME280;2397;53.576;9.746;2023-02-10T05:54:43;103232.44;;;1.60;100.00
4767;BME280;2397;53.576;9.746;2023-02-10T05:57:10;103234.47;;;1.64;100.00
4767;BME280;2397;53.576;9.746;2023-02-10T05:59:36;103239.72;;;1.66;100.00
4767;BME280;2397;53.576;9.746;2023-02-10T06:02:03;103237.81;;;1.63;100.00
4767;BME280;2397;53.576;9.746;2023-02-10T06:04:29;103238.56;;;1.62;100.00
4767;BME280;2397;53.576;9.746;2023-02-10T06:06:56;103240.97;;;1.61;100.00
4767;BME280;2397;53.576;9.746;2023-02-10T06:09:22;103249.94;;;1.66;100.00
4767;BME280;2397;53.576;9.746;2023-02-10T06:11:52;103247.13;;;1.63;100.00
4767;BME280;2397;53.576;9.746;2023-02-10T06:14:19;103252.88;;;1.60;100.00
4767;BME280;2397;53.576;9.746;2023-02-10T06:16:46;103262.03;;;1.58;100.00
4767;BME280;2397;53.576;9.746;2023-02-10T06:19:12;103259.88;;;1.63;100.00
4767;BME280;2397;53.576;9.746;2023-02-10T06:21:38;103268.31;;;1.62;100.00
4767;BME280;2397;53.576;9.746;2023-02-10T06:24:05;103269.94;;;1.61;100.00
4767;BME280;2397;53.576;9.746;2023-02-10T06:26:31;103274.50;;;1.55;100.00
4767;BME280;2397;53.576;9.746;2023-02-10T06:28:58;103272.69;;;1.54;100.00
4767;BME280;2397;53.576;9.746;2023-02-10T06:31:24;103279.63;;;1.55;100.00
4767;BME280;2397;53.576;9.746;2023-02-10T06:33:52;103279.63;;;1.55;100.00
4767;BME280;2397;53.576;9.746;2023-02-10T06:36:18;103280.66;;;1.57;100.00
4767;BME280;2397;53.576;9.746;2023-02-10T06:38:45;103271.06;;;1.54;100.00
4767;BME280;2397;53.576;9.746;2023-02-10T06:41:11;103273.63;;;1.54;100.00
4767;BME280;2397;53.576;9.746;2023-02-10T06:43:37;103275.72;;;1.58;100.00
4767;BME280;2397;53.576;9.746;2023-02-10T06:46:04;103275.84;;;1.60;100.00
4767;BME280;2397;53.576;9.746;2023-02-10T06:48:30;103279.28;;;1.61;100.00
4767;BME280;2397;53.576;9.746;2023-02-10T06:50:57;103280.16;;;1.61;100.00
4767;BME280;2397;53.576;9.746;2023-02-10T06:53:23;103289.63;;;1.62;100.00
4767;BME280;2397;53.576;9.746;2023-02-10T06:55:50;103292.94;;;1.61;100.00
4767;BME280;2397;53.576;9.746;2023-02-10T06:58:16;103292.94;;;1.61;100.00
4767;BME280;2397;53.576;9.746;2023-02-10T07:00:43;103293.72;;;1.60;100.00
4767;BME280;2397;53.576;9.746;2023-02-10T07:03:12;103302.41;;;1.62;100.00
4767;BME280;2397;53.576;9.746;2023-02-10T07:05:38;103300.59;;;1.61;100.00
4767;BME280;2397;53.576;9.746;2023-02-10T07:08:07;103305.69;;;1.61;100.00
4767;BME280;2397;53.576;9.746;2023-02-10T07:10:34;103303.16;;;1.61;100.00
4767;BME280;2397;53.576;9.746;2023-02-10T07:13:00;103306.47;;;1.60;100.00
4767;BME280;2397;53.576;9.746;2023-02-10T07:15:27;103304.81;;;1.61;100.00
4767;BME280;2397;53.576;9.746;2023-02-10T07:17:53;103300.78;;;1.54;100.00
4767;BME280;2397;53.576;9.746;2023-02-10T07:20:20;103305.00;;;1.53;100.00
4767;BME280;2397;53.576;9.746;2023-02-10T07:22:47;103303.34;;;1.54;100.00
4767;BME280;2397;53.576;9.746;2023-02-10T07:25:14;103300.78;;;1.54;100.00
4767;BME280;2397;53.576;9.746;2023-02-10T07:27:40;103295.81;;;1.55;100.00
4767;BME280;2397;53.576;9.746;2023-02-10T07:30:07;103295.41;;;1.51;100.00
4767;BME280;2397;53.576;9.746;2023-02-10T07:32:34;103304.72;;;1.50;100.00
4767;BME280;2397;53.576;9.746;2023-02-10T07:35:00;103308.31;;;1.52;100.00
4767;BME280;2397;53.576;9.746;2023-02-10T07:37:26;103312.94;;;1.56;100.00
4767;BME280;2397;53.576;9.746;2023-02-10T07:39:53;103333.09;;;1.53;100.00
4767;BME280;2397;53.576;9.746;2023-02-10T07:42:20;103320.47;;;1.55;100.00
4767;BME280;2397;53.576;9.746;2023-02-10T07:44:46;103321.94;;;1.62;100.00
4767;BME280;2397;53.576;9.746;2023-02-10T07:47:13;103321.16;;;1.63;100.00
4767;BME280;2397;53.576;9.746;2023-02-10T07:49:39;103317.56;;;1.61;100.00
4767;BME280;2397;53.576;9.746;2023-02-10T07:52:05;103316.97;;;1.63;100.00
4767;BME280;2397;53.576;9.746;2023-02-10T07:54:32;103318.75;;;1.64;100.00
4767;BME280;2397;53.576;9.746;2023-02-10T07:56:58;103322.97;;;1.64;100.00
4767;BME280;2397;53.576;9.746;2023-02-10T07:59:25;103309.31;;;1.63;100.00
4767;BME280;2397;53.576;9.746;2023-02-10T08:01:51;103314.56;;;1.65;100.00
4767;BME280;2397;53.576;9.746;2023-02-10T08:04:17;103319.78;;;1.66;100.00
4767;BME280;2397;53.576;9.746;2023-02-10T08:06:44;103323.66;;;1.71;100.00
4767;BME280;2397;53.576;9.746;2023-02-10T08:09:10;103323.31;;;1.77;100.00
4767;BME280;2397;53.576;9.746;2023-02-10T08:11:37;103322.44;;;1.77;100.00
4767;BME280;2397;53.576;9.746;2023-02-10T08:14:03;103315.53;;;1.75;100.00
4767;BME280;2397;53.576;9.746;2023-02-10T08:16:29;103316.69;;;1.79;100.00
4767;BME280;2397;53.576;9.746;2023-02-10T08:18:56;103325.69;;;1.84;100.00
4767;BME280;2397;53.576;9.746;2023-02-10T08:21:24;103316.47;;;1.86;100.00
4767;BME280;2397;53.576;9.746;2023-02-10T08:23:52;103312.16;;;1.85;100.00
4767;BME280;2397;53.576;9.746;2023-02-10T08:26:23;103308.22;;;1.89;100.00
4767;BME280;2397;53.576;9.746;2023-02-10T08:28:50;103313.25;;;1.98;100.00
4767;BME280;2397;53.576;9.746;2023-02-10T08:31:17;103317.75;;;2.00;100.00
4767;BME280;2397;53.576;9.746;2023-02-10T08:34:01;103326.44;;;2.02;100.00
4767;BME280;2397;53.576;9.746;2023-02-10T08:36:27;103320.56;;;2.03;100.00
4767;BME280;2397;53.576;9.746;2023-02-10T08:38:54;103326.44;;;2.02;100.00
4767;BME280;2397;53.576;9.746;2023-02-10T08:41:20;103327.50;;;2.04;100.00
4767;BME280;2397;53.576;9.746;2023-02-10T08:43:46;103324.94;;;2.04;100.00
4767;BME280;2397;53.576;9.746;2023-02-10T08:46:13;103326.69;;;2.05;100.00
4767;BME280;2397;53.576;9.746;2023-02-10T08:48:40;103326.44;;;2.02;100.00
4767;BME280;2397;53.576;9.746;2023-02-10T08:51:09;103327.31;;;2.03;100.00
4767;BME280;2397;53.576;9.746;2023-02-10T08:53:36;103317.88;;;2.02;100.00
4767;BME280;2397;53.576;9.746;2023-02-10T08:56:08;103336.19;;;2.06;100.00
4767;BME280;2397;53.576;9.746;2023-02-10T08:58:35;103333.63;;;2.06;100.00
4767;BME280;2397;53.576;9.746;2023-02-10T09:01:13;103336.19;;;2.06;100.00
4767;BME280;2397;53.576;9.746;2023-02-10T09:03:40;103340.41;;;2.06;100.00
4767;BME280;2397;53.576;9.746;2023-02-10T09:06:21;103341.00;;;2.03;100.00
4767;BME280;2397;53.576;9.746;2023-02-10T09:08:50;103329.41;;;2.07;100.00
4767;BME280;2397;53.576;9.746;2023-02-10T09:11:19;103335.44;;;2.07;100.00
4767;BME280;2397;53.576;9.746;2023-02-10T09:13:45;103335.44;;;2.07;100.00
4767;BME280;2397;53.576;9.746;2023-02-10T09:16:12;103348.47;;;2.10;100.00
4767;BME280;2397;53.576;9.746;2023-02-10T09:18:38;103342.44;;;2.10;100.00
4767;BME280;2397;53.576;9.746;2023-02-10T09:21:05;103343.78;;;2.15;100.00
4767;BME280;2397;53.576;9.746;2023-02-10T09:23:31;103346.88;;;2.21;100.00
4767;BME280;2397;53.576;9.746;2023-02-10T09:25:59;103352.72;;;2.20;100.00
4767;BME280;2397;53.576;9.746;2023-02-10T09:28:26;103349.91;;;2.17;100.00
4767;BME280;2397;53.576;9.746;2023-02-10T09:30:53;103349.69;;;2.24;100.00
4767;BME280;2397;53.576;9.746;2023-02-10T09:33:20;103347.53;;;2.29;100.00
4767;BME280;2397;53.576;9.746;2023-02-10T09:35:46;103339.88;;;2.29;100.00
4767;BME280;2397;53.576;9.746;2023-02-10T09:38:13;103341.69;;;2.30;100.00
4767;BME280;2397;53.576;9.746;2023-02-10T09:41:08;103342.22;;;2.36;100.00
4767;BME280;2397;53.576;9.746;2023-02-10T09:43:55;103342.34;;;2.38;100.00
4767;BME280;2397;53.576;9.746;2023-02-10T09:46:34;103351.44;;;2.34;100.00
4767;BME280;2397;53.576;9.746;2023-02-10T09:49:14;103339.66;;;2.36;100.00
4767;BME280;2397;53.576;9.746;2023-02-10T09:52:17;103341.47;;;2.37;100.00
4767;BME280;2397;53.576;9.746;2023-02-10T09:54:49;103343.25;;;2.38;100.00
4767;BME280;2397;53.576;9.746;2023-02-10T09:57:37;103336.91;;;2.43;100.00
4767;BME280;2397;53.576;9.746;2023-02-10T10:00:20;103343.44;;;2.50;100.00
4767;BME280;2397;53.576;9.746;2023-02-10T10:02:53;103344.00;;;2.56;100.00
4767;BME280;2397;53.576;9.746;2023-02-10T10:05:33;103340.66;;;2.57;100.00
4767;BME280;2397;53.576;9.746;2023-02-10T10:08:12;103344.88;;;2.57;100.00
4767;BME280;2397;53.576;9.746;2023-02-10T10:10:45;103342.72;;;2.61;100.00
4767;BME280;2397;53.576;9.746;2023-02-10T10:13:22;103349.28;;;2.68;100.00
4767;BME280;2397;53.576;9.746;2023-02-10T10:16:05;103347.63;;;2.69;100.00
4767;BME280;2397;53.576;9.746;2023-02-10T10:18:41;103361.56;;;2.72;100.00
4767;BME280;2397;53.576;9.746;2023-02-10T10:21:26;103361.81;;;2.75;100.00
4767;BME280;2397;53.576;9.746;2023-02-10T10:24:10;103358.50;;;2.76;100.00
4767;BME280;2397;53.576;9.746;2023-02-10T10:26:58;103359.03;;;2.83;100.00
4767;BME280;2397;53.576;9.746;2023-02-10T10:29:41;103359.03;;;2.83;100.00
4767;BME280;2397;53.576;9.746;2023-02-10T10:32:26;103357.53;;;2.85;100.00
4767;BME280;2397;53.576;9.746;2023-02-10T10:34:58;103357.03;;;2.89;100.00
4767;BME280;2397;53.576;9.746;2023-02-10T10:37:26;103349.91;;;2.95;100.00
4767;BME280;2397;53.576;9.746;2023-02-10T10:39:57;103355.16;;;2.96;100.00
4767;BME280;2397;53.576;9.746;2023-02-10T10:42:29;103347.38;;;3.05;100.00
4767;BME280;2397;53.576;9.746;2023-02-10T10:45:06;103346.09;;;3.10;100.00
4767;BME280;2397;53.576;9.746;2023-02-10T10:47:43;103348.41;;;3.17;100.00
4767;BME280;2397;53.576;9.746;2023-02-10T10:50:14;103347.41;;;3.26;100.00
4767;BME280;2397;53.576;9.746;2023-02-10T10:52:42;103339.19;;;3.30;100.00
4767;BME280;2397;53.576;9.746;2023-02-10T10:55:15;103335.50;;;3.37;100.00
4767;BME280;2397;53.576;9.746;2023-02-10T10:57:44;103326.94;;;3.46;100.00
4767;BME280;2397;53.576;9.746;2023-02-10T11:00:21;103326.53;;;3.52;100.00
4767;BME280;2397;53.576;9.746;2023-02-10T11:02:53;103318.22;;;3.65;100.00
4767;BME280;2397;53.576;9.746;2023-02-10T11:05:19;103312.72;;;3.71;100.00
4767;BME280;2397;53.576;9.746;2023-02-10T11:08:05;103318.59;;;3.80;100.00
4767;BME280;2397;53.576;9.746;2023-02-10T11:10:53;103312.72;;;3.91;100.00
4767;BME280;2397;53.576;9.746;2023-02-10T11:13:22;103306.25;;;4.07;100.00
4767;BME280;2397;53.576;9.746;2023-02-10T11:16:00;103302.66;;;4.15;100.00
4767;BME280;2397;53.576;9.746;2023-02-10T11:18:28;103303.41;;;4.24;100.00
4767;BME280;2397;53.576;9.746;2023-02-10T11:21:00;103303.63;;;4.27;100.00
4767;BME280;2397;53.576;9.746;2023-02-10T11:23:28;103299.72;;;4.43;100.00
4767;BME280;2397;53.576;9.746;2023-02-10T11:26:15;103301.56;;;4.66;100.00
4767;BME280;2397;53.576;9.746;2023-02-10T11:28:42;103291.38;;;4.78;100.00
4767;BME280;2397;53.576;9.746;2023-02-10T11:33:55;103286.69;;;5.06;100.00
4767;BME280;2397;53.576;9.746;2023-02-10T11:36:30;103295.72;;;5.23;100.00
4767;BME280;2397;53.576;9.746;2023-02-10T11:39:04;103293.94;;;5.34;100.00
4767;BME280;2397;53.576;9.746;2023-02-10T11:41:32;103278.78;;;5.49;100.00
4767;BME280;2397;53.576;9.746;2023-02-10T11:44:00;103288.88;;;5.57;100.00
4767;BME280;2397;53.576;9.746;2023-02-10T11:46:29;103278.91;;;5.50;100.00
4767;BME280;2397;53.576;9.746;2023-02-10T11:49:02;103269.50;;;5.51;100.00
4767;BME280;2397;53.576;9.746;2023-02-10T11:51:29;103266.63;;;5.58;100.00
4767;BME280;2397;53.576;9.746;2023-02-10T11:53:57;103265.00;;;5.70;100.00
4767;BME280;2397;53.576;9.746;2023-02-10T11:56:46;103261.06;;;5.75;100.00
4767;BME280;2397;53.576;9.746;2023-02-10T11:59:56;103250.78;;;5.87;100.00
4767;BME280;2397;53.576;9.746;2023-02-10T12:03:00;103244.03;;;6.00;100.00
4767;BME280;2397;53.576;9.746;2023-02-10T12:05:39;103225.00;;;5.97;100.00
4767;BME280;2397;53.576;9.746;2023-02-10T12:11:10;103231.38;;;6.03;100.00
4767;BME280;2397;53.576;9.746;2023-02-10T12:13:54;103222.31;;;6.08;100.00
4767;BME280;2397;53.576;9.746;2023-02-10T12:16:48;103224.00;;;6.07;100.00
4767;BME280;2397;53.576;9.746;2023-02-10T12:22:10;103225.66;;;6.07;100.00
4767;BME280;2397;53.576;9.746;2023-02-10T12:24:54;103227.44;;;6.08;100.00
4767;BME280;2397;53.576;9.746;2023-02-10T12:27:33;103211.34;;;6.10;100.00
4767;BME280;2397;53.576;9.746;2023-02-10T12:30:25;103216.81;;;6.15;100.00
4767;BME280;2397;53.576;9.746;2023-02-10T12:33:09;103214.13;;;6.25;100.00
4767;BME280;2397;53.576;9.746;2023-02-10T12:41:37;103194.31;;;6.24;100.00
4767;BME280;2397;53.576;9.746;2023-02-10T12:44:28;103195.25;;;6.13;100.00
4767;BME280;2397;53.576;9.746;2023-02-10T12:50:04;103178.16;;;6.13;100.00
4767;BME280;2397;53.576;9.746;2023-02-10T12:52:41;103189.22;;;6.12;100.00
4767;BME280;2397;53.576;9.746;2023-02-10T12:57:43;103178.03;;;6.12;100.00
4767;BME280;2397;53.576;9.746;2023-02-10T13:00:19;103180.81;;;6.15;100.00
4767;BME280;2397;53.576;9.746;2023-02-10T13:02:54;103175.66;;;6.27;100.00
4767;BME280;2397;53.576;9.746;2023-02-10T13:05:30;103177.19;;;6.37;100.00
4767;BME280;2397;53.576;9.746;2023-02-10T13:08:00;103181.59;;;6.51;100.00
4767;BME280;2397;53.576;9.746;2023-02-10T13:10:38;103172.81;;;6.73;100.00
4767;BME280;2397;53.576;9.746;2023-02-10T13:13:12;103176.31;;;6.86;100.00
4767;BME280;2397;53.576;9.746;2023-02-10T13:15:45;103179.53;;;6.96;100.00
4767;BME280;2397;53.576;9.746;2023-02-10T13:18:23;103168.81;;;7.03;100.00
4767;BME280;2397;53.576;9.746;2023-02-10T13:21:03;103162.47;;;6.98;100.00
4767;BME280;2397;53.576;9.746;2023-02-10T13:23:51;103162.53;;;6.86;100.00
4767;BME280;2397;53.576;9.746;2023-02-10T13:26:32;103161.38;;;6.69;100.00
4767;BME280;2397;53.576;9.746;2023-02-10T13:34:29;103151.03;;;6.56;100.00
4767;BME280;2397;53.576;9.746;2023-02-10T13:37:06;103142.06;;;6.62;100.00
4767;BME280;2397;53.576;9.746;2023-02-10T13:39:35;103148.16;;;6.51;100.00
4767;BME280;2397;53.576;9.746;2023-02-10T13:44:42;103130.09;;;6.38;100.00
4767;BME280;2397;53.576;9.746;2023-02-10T13:49:38;103136.19;;;6.26;100.00
4767;BME280;2397;53.576;9.746;2023-02-10T13:52:16;103135.28;;;6.26;100.00
4767;BME280;2397;53.576;9.746;2023-02-10T13:54:54;103136.97;;;6.25;100.00
4767;BME280;2397;53.576;9.746;2023-02-10T13:57:32;103136.97;;;6.25;100.00
4767;BME280;2397;53.576;9.746;2023-02-10T14:00:18;103120.31;;;6.20;100.00
4767;BME280;2397;53.576;9.746;2023-02-10T14:02:58;103118.97;;;6.25;100.00
4767;BME280;2397;53.576;9.746;2023-02-10T14:05:33;103122.06;;;6.33;100.00
4767;BME280;2397;53.576;9.746;2023-02-10T14:08:13;103130.19;;;6.39;100.00
4767;BME280;2397;53.576;9.746;2023-02-10T14:10:40;103132.19;;;6.43;100.00
4767;BME280;2397;53.576;9.746;2023-02-10T14:13:24;103135.94;;;6.35;100.00
4767;BME280;2397;53.576;9.746;2023-02-10T14:16:07;103127.97;;;6.32;100.00
4767;BME280;2397;53.576;9.746;2023-02-10T14:19:02;103143.00;;;6.26;100.00
4767;BME280;2397;53.576;9.746;2023-02-10T14:21:41;103132.75;;;6.14;100.00
4767;BME280;2397;53.576;9.746;2023-02-10T14:24:22;103141.81;;;6.09;100.00
4767;BME280;2397;53.576;9.746;2023-02-10T14:26:56;103127.38;;;6.11;100.00
4767;BME280;2397;53.576;9.746;2023-02-10T14:29:25;103133.63;;;6.26;100.00
4767;BME280;2397;53.576;9.746;2023-02-10T14:31:55;103121.38;;;6.36;100.00